EHLEEHRD

Guest
Details From EHLE - Lelystad
To EHRD - Rotterdam
Flight Number -
Tags Routegen Generated
Created
Modified
Stats Distance 49 nm / 90 km
Max Altitude 100 ft / 30 m
Waypoints 5
Social Downloads 2
Likes 0
Share

Download

Looking for another format? Having issues loading an existing format? Contact us
Advertisement - Login to hide

Notes

Departing runway 22 EHLE. Arriving runway 5 EHRD.

Route

EHLE +52.40_+005.42 +52.20_+004.99 +52.00_+004.55 EHRD

ID Type Via Altitude (ft/m) Position (lat/lon) Dist (leg/tot) Name
O EHLE APT - 0 / 0 52.45115 / 5.51102 - / 0 nm
+52.40_+005.42 LATLON - 100 / 30 52.40222 / 5.42358 4 / 4 nm
+52.20_+004.99 LATLON - 100 / 30 52.20224 / 4.98860 19 / 24 nm
+52.00_+004.55 LATLON - 100 / 30 52.00227 / 4.55361 20 / 44 nm
O EHRD APT - 0 / 0 51.96285 / 4.45508 4 / 48 nm

Altitude Profile

Advertisement - Login to hide

EHLE

Details ICAO EHLE (LEY)
Name Lelystad Airport
Region Netherlands
Timezone Europe/Amsterdam (UTC+2.0)
Stats Elevation -39 ft / -12 m (AMSL)
Location 52.459400° 5.519870°
Runways 2
Magnetic Variation 1.920° E

METAR

EHLE 271125Z AUTO 21012KT 180V240 9999 FEW017 BKN020 OVC024 15/12 Q1021 NOSIG

Decode

TAF

TAF EHLE 270433Z 2706/2812 22013KT 9999 SCT007 BKN012 BECMG 2706/2709 BKN025 BECMG 2722/2801 17008KT PROB30 2803/2807 6000

Decode

Departure Runways

ID Width Length Bearing (true/mag) Surface Threshold Overrun Markings Lighting
05 98 ft / 30 m 4,095 ft / 1,248 m 47.51° / 45.59° ASPHALT 0 ft / 0 m 184 ft / 56 m PREC-APP EDGE THRESHOLD
05L 164 ft / 50 m 1,412 ft / 430 m 48.00° / 46.08° GRASS 0 ft / 0 m 0 ft / 0 m NONE
23 98 ft / 30 m 4,095 ft / 1,248 m 227.52° / 225.60° ASPHALT 0 ft / 0 m 0 ft / 0 m VISUAL EDGE THRESHOLD SALS
23R 164 ft / 50 m 1,412 ft / 430 m 228.00° / 226.08° GRASS 0 ft / 0 m 0 ft / 0 m NONE

EHRD

Details ICAO EHRD (RTM)
Name Rotterdam The Hague
Region Netherlands
Timezone Europe/Amsterdam (UTC+2.0)
Stats Elevation -15 ft / -5 m (AMSL)
Location 51.957500° 4.441690°
Runways 1
Magnetic Variation 1.595° E

METAR

EHRD 271125Z AUTO 20011KT 170V230 9999 FEW015 OVC025 15/12 Q1022 NOSIG

Decode

TAF

TAF EHRD 270432Z 2706/2812 22013KT 9999 BKN030 PROB30 TEMPO 2706/2709 BKN013 BECMG 2723/2802 17008KT

Decode

Destination Runways

ID Width Length Bearing (true/mag) Surface Threshold Overrun Markings Lighting
06 148 ft / 45 m 7,198 ft / 2,194 m 57.03° / 55.43° ASPHALT 643 ft / 196 m 0 ft / 0 m UK-PREC-APP CENTERLINE EDGE THRESHOLD MALSR REIL-UNI
24 148 ft / 45 m 7,198 ft / 2,194 m 237.05° / 235.45° ASPHALT 646 ft / 197 m 0 ft / 0 m PREC-APP CENTERLINE EDGE THRESHOLD MALSR REIL-UNI

Approach Navaids

Runway Type Ident Frequency Range Bearing (true/mag) Slope Elevation
06 DME ROS 110.90 MHz 18 nm / 33 km - - -15 ft / -5 m (AMSL)
06 LOC-ILS ROS 109.10 MHz 18 nm / 33 km 56.94° / 55.35 ° - -15 ft / -5 m (AMSL)
24 DME RSV 110.90 MHz 18 nm / 33 km - - -15 ft / -5 m (AMSL)
24 LOC-ILS RSV 110.90 MHz 18 nm / 33 km 236.94° / 235.35 ° - -15 ft / -5 m (AMSL)

Popular Alternatives